Time;durP1;ratioP1;P1;durP2;ratioP2;P2;SDS_P1;SDS_P2;PMS_P1;PMS_P2;Temp;Humidity;BMP_temperature;BMP_pressure;BME280_temperature;BME280_humidity;BME280_pressure;Samples;Min_cycle;Max_cycle;Signal;HPM_P1;HPM_P2
2022/12/21 00:01:38;;;;;;;12.93;8.20;;;21.60;99.90;;;;;;5014190;28;20076;-48
2022/12/21 00:04:05;;;;;;;14.05;7.95;;;21.60;99.90;;;;;;5015486;28;20357;-48
2022/12/21 00:06:36;;;;;;;12.25;7.57;;;21.50;99.90;;;;;;5014142;28;20537;-48
2022/12/21 00:09:05;;;;;;;12.25;7.53;;;21.50;99.90;;;;;;5015426;28;20076;-47
2022/12/21 00:11:32;;;;;;;16.70;8.00;;;21.50;99.90;;;;;;5015290;28;20104;-47
2022/12/21 00:14:00;;;;;;;16.98;8.05;;;21.50;99.90;;;;;;5015280;28;20549;-47
2022/12/21 00:16:28;;;;;;;10.68;7.60;;;21.50;99.90;;;;;;5015459;28;20464;-47
2022/12/21 00:18:55;;;;;;;14.85;8.02;;;21.60;99.90;;;;;;5015271;28;20022;-48
2022/12/21 00:21:23;;;;;;;13.90;7.33;;;21.50;99.90;;;;;;5015317;28;20054;-48
2022/12/21 00:23:51;;;;;;;12.50;7.32;;;21.50;99.90;;;;;;5015240;28;20248;-48
2022/12/21 00:26:20;;;;;;;14.48;7.95;;;21.50;99.90;;;;;;5015115;28;20034;-48
2022/12/21 00:28:47;;;;;;;15.23;7.07;;;21.50;99.90;;;;;;5015337;28;20030;-47
2022/12/21 00:31:15;;;;;;;15.00;8.23;;;21.50;99.90;;;;;;4997711;28;20026;-47
2022/12/21 00:33:42;;;;;;;16.48;9.32;;;21.50;99.90;;;;;;5014948;28;20494;-48
2022/12/21 00:36:11;;;;;;;15.87;8.30;;;21.50;99.90;;;;;;5014897;28;20445;-48
2022/12/21 00:38:37;;;;;;;13.82;8.48;;;21.50;99.90;;;;;;5014807;28;20049;-48
2022/12/21 00:41:08;;;;;;;11.85;7.85;;;21.50;99.90;;;;;;5014693;28;20018;-48
2022/12/21 00:43:37;;;;;;;11.63;7.63;;;21.50;99.90;;;;;;5029937;28;20022;-48
2022/12/21 00:46:04;;;;;;;12.82;7.60;;;21.50;99.90;;;;;;5014706;28;20053;-48
2022/12/21 00:48:31;;;;;;;12.98;7.68;;;21.50;99.90;;;;;;5014806;28;20101;-48
2022/12/21 00:51:12;;;;;;;13.10;7.03;;;21.40;99.90;;;;;;5013313;28;20028;-48
2022/12/21 00:53:38;;;;;;;14.23;7.95;;;21.40;99.90;;;;;;5014641;28;20030;-48
2022/12/21 00:56:06;;;;;;;12.60;7.93;;;21.50;99.90;;;;;;5014523;28;20025;-47
2022/12/21 00:58:32;;;;;;;10.98;7.60;;;21.50;99.90;;;;;;4997429;28;20499;-48
2022/12/21 01:01:05;;;;;;;11.87;7.97;;;21.40;99.90;;;;;;5013932;28;20085;-49
2022/12/21 01:03:31;;;;;;;15.18;8.05;;;21.40;99.90;;;;;;5014386;28;20026;-48
2022/12/21 01:05:56;;;;;;;14.65;8.88;;;21.40;99.90;;;;;;5014414;28;20381;-49
2022/12/21 01:08:24;;;;;;;17.02;9.27;;;21.40;99.90;;;;;;5014371;28;20052;-48
2022/12/21 01:10:55;;;;;;;;;;;21.40;99.90;;;;;;5013613;28;20053;-48
2022/12/21 01:13:21;;;;;;;13.18;7.47;;;21.40;99.90;;;;;;5014408;28;19906;-48
2022/12/21 01:15:47;;;;;;;16.65;8.30;;;21.40;99.90;;;;;;5013171;28;20032;-48
2022/12/21 01:18:14;;;;;;;15.25;8.57;;;21.40;99.90;;;;;;5014130;28;20034;-48
2022/12/21 01:20:43;;;;;;;13.98;8.60;;;21.40;99.90;;;;;;5014059;28;20030;-48
2022/12/21 01:23:09;;;;;;;15.05;8.35;;;21.40;99.90;;;;;;5014113;28;20492;-49
2022/12/21 01:25:35;;;;;;;14.85;9.55;;;21.40;99.90;;;;;;5013915;28;20037;-48
2022/12/21 01:28:00;;;;;;;17.85;8.90;;;21.30;99.90;;;;;;5013904;28;20054;-48
2022/12/21 01:30:26;;;;;;;13.55;8.30;;;21.30;99.90;;;;;;5013984;28;20430;-48
2022/12/21 01:32:52;;;;;;;15.07;9.18;;;21.40;99.90;;;;;;5013942;28;20464;-48
2022/12/21 01:35:19;;;;;;;13.10;8.65;;;21.30;99.90;;;;;;5029330;28;20030;-48
2022/12/21 01:37:45;;;;;;;13.32;8.50;;;21.30;99.90;;;;;;5013896;28;20479;-48
2022/12/21 01:40:12;;;;;;;14.93;9.35;;;21.30;99.90;;;;;;5013739;28;20030;-48
2022/12/21 01:42:38;;;;;;;14.00;8.93;;;21.30;99.90;;;;;;5013914;28;20018;-48
2022/12/21 01:45:27;;;;;;;16.90;9.38;;;21.30;99.90;;;;;;5012338;28;20037;-48
2022/12/21 01:48:04;;;;;;;14.25;8.68;;;21.30;99.90;;;;;;5013542;28;20026;-48
2022/12/21 01:50:49;;;;;;;17.30;10.32;;;21.30;99.90;;;;;;5013537;28;20472;-48
2022/12/21 01:53:33;;;;;;;13.13;9.18;;;21.30;99.90;;;;;;5013647;28;20030;-48
2022/12/21 01:56:01;;;;;;;16.52;9.27;;;21.30;99.90;;;;;;5013509;28;20033;-48
2022/12/21 01:58:29;;;;;;;16.42;10.25;;;21.30;99.90;;;;;;5013412;28;20030;-48
2022/12/21 02:00:58;;;;;;;16.63;9.32;;;21.30;99.90;;;;;;5003541;22;20149;-55
2022/12/21 02:03:48;;;;;;;15.07;9.57;;;21.30;99.90;;;;;;4974276;28;20030;-56
2022/12/21 02:06:32;;;;;;;16.27;9.10;;;21.30;99.90;;;;;;4973898;28;20050;-56
2022/12/21 02:09:00;;;;;;;17.63;10.63;;;21.30;99.90;;;;;;4974364;28;20030;-54
2022/12/21 02:11:26;;;;;;;18.27;9.90;;;21.20;99.90;;;;;;4974157;28;20033;-56
2022/12/21 02:13:52;;;;;;;15.27;9.07;;;21.30;99.90;;;;;;4956674;28;20022;-54
2022/12/21 02:16:36;;;;;;;16.55;9.07;;;21.30;99.90;;;;;;4974166;28;20382;-54
2022/12/21 02:19:36;;;;;;;13.35;8.80;;;21.20;99.90;;;;;;4974042;28;20034;-56
2022/12/21 02:22:08;;;;;;;15.63;9.05;;;21.20;99.90;;;;;;4974048;28;20027;-54
2022/12/21 02:24:52;;;;;;;15.60;9.88;;;21.20;99.90;;;;;;4973974;28;20053;-56
2022/12/21 02:27:36;;;;;;;16.70;9.65;;;21.20;99.90;;;;;;4974039;28;20061;-56
2022/12/21 02:30:20;;;;;;;16.65;10.45;;;21.20;99.90;;;;;;4973863;28;20077;-56
2022/12/21 02:33:16;;;;;;;14.45;9.45;;;21.20;99.90;;;;;;4956425;28;20392;-56
2022/12/21 02:36:03;;;;;;;15.77;10.05;;;21.20;99.90;;;;;;4973737;28;20033;-53
2022/12/21 02:39:00;;;;;;;16.77;10.50;;;21.20;99.90;;;;;;4956456;28;20100;-56
2022/12/21 02:41:42;;;;;;;20.25;10.55;;;21.20;99.90;;;;;;4973790;28;20027;-56
2022/12/21 02:44:33;;;;;;;18.27;10.93;;;21.10;99.90;;;;;;4973856;28;20034;-54
2022/12/21 02:47:21;;;;;;;15.43;9.98;;;21.10;99.90;;;;;;4973651;28;20033;-54
2022/12/21 02:49:59;;;;;;;16.83;10.43;;;21.10;99.90;;;;;;4973497;28;20469;-53
2022/12/21 02:52:51;;;;;;;15.77;9.98;;;21.10;99.90;;;;;;4973523;28;20451;-53
2022/12/21 02:55:17;;;;;;;22.27;10.57;;;21.10;99.90;;;;;;4973537;28;20065;-53
2022/12/21 02:57:44;;;;;;;19.20;10.18;;;21.10;99.90;;;;;;4973330;28;20070;-53
2022/12/21 03:00:14;;;;;;;17.17;10.60;;;21.10;99.90;;;;;;4973932;28;20043;-54
2022/12/21 03:06:14;;;;;;;19.10;11.82;;;21.10;99.90;;;;;;4973412;28;20038;-54
2022/12/21 03:08:58;;;;;;;17.73;11.68;;;21.10;99.90;;;;;;4973329;28;20022;-54
2022/12/21 03:11:48;;;;;;;22.33;12.48;;;21.00;99.90;;;;;;4973782;28;20109;-56
2022/12/21 03:14:29;;;;;;;16.15;10.52;;;21.00;99.90;;;;;;4958017;28;20066;-56
2022/12/21 03:17:21;;;;;;;20.92;12.50;;;21.00;99.90;;;;;;4973201;28;20438;-54
2022/12/21 03:20:07;;;;;;;21.20;12.20;;;21.00;99.90;;;;;;4972899;28;20043;-54
2022/12/21 03:22:52;;;;;;;17.65;12.15;;;21.00;99.90;;;;;;4973215;28;20023;-54
2022/12/21 03:25:46;;;;;;;19.70;11.85;;;21.00;99.90;;;;;;4974972;28;20101;-54
2022/12/21 03:28:19;;;;;;;19.58;11.60;;;21.00;99.90;;;;;;4977101;28;20026;-54
2022/12/21 03:30:50;;;;;;;22.15;13.15;;;21.00;99.90;;;;;;4977416;28;20026;-54
2022/12/21 03:33:22;;;;;;;23.10;11.85;;;21.00;99.90;;;;;;4977089;28;20102;-54
2022/12/21 03:36:05;;;;;;;17.70;11.02;;;21.00;99.90;;;;;;4977138;28;20022;-54
2022/12/21 03:38:42;;;;;;;22.95;12.35;;;20.90;99.90;;;;;;4976966;28;20100;-55
2022/12/21 03:41:18;;;;;;;19.08;11.52;;;21.00;99.90;;;;;;4976921;28;20019;-55
2022/12/21 03:43:46;;;;;;;21.05;12.80;;;20.90;99.90;;;;;;4960289;28;20061;-53
2022/12/21 03:46:27;;;;;;;20.10;12.35;;;21.00;99.90;;;;;;4976791;28;20019;-56
2022/12/21 03:49:07;;;;;;;20.63;12.00;;;20.90;99.90;;;;;;4977091;28;20061;-56
2022/12/21 03:51:46;;;;;;;21.98;13.43;;;20.90;99.90;;;;;;4976827;28;20363;-55
2022/12/21 03:54:16;;;;;;;21.10;13.05;;;20.90;99.90;;;;;;4976676;28;20105;-55
2022/12/21 03:56:42;;;;;;;21.00;12.30;;;20.90;99.90;;;;;;4976412;28;20088;-54
2022/12/21 03:59:12;;;;;;;19.70;12.45;;;20.90;99.90;;;;;;4977099;28;20080;-54
2022/12/21 04:01:49;;;;;;;22.77;12.38;;;20.90;99.90;;;;;;4976298;28;20051;-54
2022/12/21 04:04:31;;;;;;;22.95;12.52;;;20.90;99.90;;;;;;4976363;28;20093;-54
2022/12/21 04:06:59;;;;;;;20.90;12.57;;;20.90;99.90;;;;;;4976600;28;20030;-54
2022/12/21 04:09:24;;;;;;;19.80;12.23;;;20.90;99.90;;;;;;4976830;28;20069;-54
2022/12/21 04:14:35;;;;;;;18.70;11.20;;;20.90;99.90;;;;;;4976576;28;20042;-53
2022/12/21 04:17:02;;;;;;;18.73;11.38;;;20.90;99.90;;;;;;4976323;28;20050;-57
2022/12/21 04:28:06;;;;;;;18.13;11.98;;;20.90;99.90;;;;;;4976172;28;20045;-54
2022/12/21 04:30:26;;;;;;;20.02;12.50;;;20.90;99.90;;;;;;4976562;28;20061;-53
2022/12/21 04:32:52;;;;;;;21.73;11.80;;;20.90;99.90;;;;;;4975891;28;20062;-54
2022/12/21 04:35:18;;;;;;;19.17;11.07;;;20.90;99.90;;;;;;4975630;28;20027;-54
2022/12/21 04:37:43;;;;;;;19.40;12.00;;;20.90;99.90;;;;;;4975857;28;20047;-54
2022/12/21 04:40:09;;;;;;;18.23;10.63;;;20.90;99.90;;;;;;4975789;28;20031;-54
2022/12/21 04:42:38;;;;;;;21.88;11.75;;;20.90;99.90;;;;;;4975958;28;20043;-55
2022/12/21 04:45:04;;;;;;;19.55;11.32;;;20.90;99.90;;;;;;4975830;28;20031;-55
2022/12/21 04:47:30;;;;;;;23.35;11.55;;;20.90;99.90;;;;;;4975556;28;20441;-55
2022/12/21 04:49:56;;;;;;;17.48;11.07;;;20.80;99.90;;;;;;4975823;28;20027;-56
2022/12/21 04:52:21;;;;;;;15.32;11.10;;;20.90;99.90;;;;;;4975723;28;20088;-55
2022/12/21 04:54:47;;;;;;;18.80;11.32;;;20.80;99.90;;;;;;4975604;28;20026;-55
2022/12/21 04:57:13;;;;;;;18.48;10.35;;;20.90;99.90;;;;;;4975343;28;20030;-55
2022/12/21 04:59:39;;;;;;;18.10;10.75;;;20.90;99.90;;;;;;5011400;22;20381;-49
2022/12/21 05:02:05;;;;;;;15.68;10.40;;;20.90;99.90;;;;;;4995464;28;20042;-49
2022/12/21 05:04:31;;;;;;;16.08;9.80;;;20.80;99.90;;;;;;4994721;28;20030;-49
2022/12/21 05:06:57;;;;;;;17.50;11.02;;;20.80;99.90;;;;;;4977505;28;20038;-49
2022/12/21 05:09:24;;;;;;;17.20;10.95;;;20.90;99.90;;;;;;4994796;28;20022;-49
2022/12/21 05:11:51;;;;;;;;;;;20.80;99.90;;;;;;4995162;28;20934;-48
2022/12/21 05:14:17;;;;;;;17.77;10.20;;;20.80;99.90;;;;;;4977276;28;19905;-48
2022/12/21 05:16:43;;;;;;;20.02;10.55;;;20.80;99.90;;;;;;4994611;28;20275;-49
2022/12/21 05:19:08;;;;;;;17.13;10.52;;;20.80;99.90;;;;;;4994589;28;20035;-48
2022/12/21 05:21:34;;;;;;;16.25;10.30;;;20.80;99.90;;;;;;4994488;28;20034;-48
2022/12/21 05:24:00;;;;;;;16.17;9.23;;;20.80;99.90;;;;;;4994633;28;20084;-48
2022/12/21 05:26:26;;;;;;;18.27;10.13;;;20.80;99.90;;;;;;4994419;28;20026;-48
2022/12/21 05:28:51;;;;;;;18.30;10.40;;;20.80;99.90;;;;;;4994561;28;20037;-49
2022/12/21 05:31:18;;;;;;;16.33;10.25;;;20.80;99.90;;;;;;4994284;28;20030;-49
2022/12/21 05:33:44;;;;;;;17.15;10.15;;;20.80;99.90;;;;;;4994305;28;20026;-49
2022/12/21 05:36:13;;;;;;;15.60;9.95;;;20.80;99.90;;;;;;4994340;28;20034;-48
2022/12/21 05:38:38;;;;;;;19.85;9.45;;;20.80;99.90;;;;;;4994267;28;20469;-48
2022/12/21 05:41:05;;;;;;;18.17;9.98;;;20.80;99.90;;;;;;4994166;28;20038;-49
2022/12/21 05:43:31;;;;;;;16.10;9.55;;;20.80;99.90;;;;;;4994480;28;20101;-49
2022/12/21 05:46:04;;;;;;;15.27;9.13;;;20.80;99.90;;;;;;4994096;28;20022;-49
2022/12/21 05:48:30;;;;;;;15.05;8.73;;;20.80;99.90;;;;;;4976785;28;20026;-49
2022/12/21 05:50:56;;;;;;;21.65;10.40;;;20.80;99.90;;;;;;4994039;28;20034;-49
2022/12/21 05:53:22;;;;;;;15.82;9.57;;;20.70;99.90;;;;;;4993915;28;20125;-48
2022/12/21 05:55:48;;;;;;;17.05;10.02;;;20.80;99.90;;;;;;4993968;28;20421;-49
2022/12/21 05:58:15;;;;;;;17.25;10.18;;;20.80;99.90;;;;;;4993793;28;20089;-49
2022/12/21 06:00:41;;;;;;;19.25;9.65;;;20.70;99.90;;;;;;4993674;28;20038;-48
2022/12/21 06:03:07;;;;;;;15.18;9.15;;;20.70;99.90;;;;;;4993685;28;20496;-48
2022/12/21 06:05:36;;;;;;;15.75;9.80;;;20.70;99.90;;;;;;4993917;28;20061;-49
2022/12/21 06:08:03;;;;;;;17.50;10.05;;;20.70;99.90;;;;;;4993810;28;20481;-49
2022/12/21 06:10:29;;;;;;;16.95;9.60;;;20.70;99.90;;;;;;4993695;28;20113;-49
2022/12/21 06:12:54;;;;;;;16.17;9.98;;;20.70;99.90;;;;;;4993479;28;20101;-50
2022/12/21 06:15:20;;;;;;;16.77;9.50;;;20.70;99.90;;;;;;4993504;28;20092;-48
2022/12/21 06:17:46;;;;;;;13.57;7.60;;;20.70;99.90;;;;;;4976104;28;20129;-49
2022/12/21 06:20:12;;;;;;;15.48;8.27;;;20.70;99.90;;;;;;4993378;28;20109;-49
2022/12/21 06:22:40;;;;;;;16.83;9.30;;;20.70;99.90;;;;;;4993351;28;20027;-49
2022/12/21 06:25:07;;;;;;;13.82;8.45;;;20.70;99.90;;;;;;4993419;28;20531;-48
2022/12/21 06:27:33;;;;;;;19.13;8.95;;;20.70;99.90;;;;;;4993476;28;20074;-48
2022/12/21 06:29:59;;;;;;;16.38;8.95;;;20.70;99.90;;;;;;4993157;28;20056;-48
2022/12/21 06:32:24;;;;;;;16.27;8.93;;;20.70;99.90;;;;;;4993063;28;20019;-48
2022/12/21 06:34:50;;;;;;;17.27;8.95;;;20.70;99.90;;;;;;4993109;28;20023;-48
2022/12/21 06:37:16;;;;;;;16.98;8.25;;;20.70;99.90;;;;;;4993141;28;20042;-48
2022/12/21 06:39:41;;;;;;;13.93;7.90;;;20.70;99.90;;;;;;4993035;28;20076;-49
2022/12/21 06:42:07;;;;;;;15.63;8.80;;;20.70;99.90;;;;;;4993264;28;20029;-48
2022/12/21 06:44:33;;;;;;;15.90;8.45;;;20.60;99.90;;;;;;4993151;28;20033;-49
2022/12/21 06:46:59;;;;;;;12.77;7.93;;;20.60;99.90;;;;;;4993003;28;20138;-49
2022/12/21 06:49:25;;;;;;;14.15;7.90;;;20.70;99.90;;;;;;4992835;28;20366;-49
2022/12/21 06:51:50;;;;;;;14.10;8.05;;;20.60;99.90;;;;;;4992794;28;20113;-48
2022/12/21 06:54:16;;;;;;;12.75;7.00;;;20.60;99.90;;;;;;4992863;28;20018;-48
2022/12/21 06:56:42;;;;;;;15.07;6.68;;;20.70;99.90;;;;;;4975513;28;20030;-48
2022/12/21 06:59:07;;;;;;;12.98;7.35;;;20.70;99.90;;;;;;4992787;28;20358;-48
2022/12/21 07:01:35;;;;;;;13.77;7.65;;;20.60;99.90;;;;;;4992966;28;20132;-49
2022/12/21 07:04:01;;;;;;;;;;;20.60;99.90;;;;;;4993147;28;20030;-48
2022/12/21 07:06:30;;;;;;;12.32;6.85;;;20.60;99.90;;;;;;4991566;28;20327;-49
2022/12/21 07:08:56;;;;;;;12.05;7.15;;;20.60;99.90;;;;;;4975302;28;20041;-48
2022/12/21 07:11:26;;;;;;;12.23;7.68;;;20.60;99.90;;;;;;4992833;28;20031;-48
2022/12/21 07:13:53;;;;;;;12.98;7.43;;;20.60;99.90;;;;;;4992770;28;20081;-48
2022/12/21 07:16:20;;;;;;;15.60;7.45;;;20.60;99.90;;;;;;4992639;28;20054;-49
2022/12/21 07:18:46;;;;;;;12.00;7.40;;;20.60;99.90;;;;;;4992529;28;20475;-50
2022/12/21 07:21:15;;;;;;;10.20;6.82;;;20.60;99.90;;;;;;4992696;28;20026;-49
2022/12/21 07:23:41;;;;;;;13.25;6.35;;;20.60;99.90;;;;;;4992829;28;20026;-48
2022/12/21 07:26:09;;;;;;;9.75;5.72;;;20.60;99.90;;;;;;4992915;28;20026;-48
2022/12/21 07:28:35;;;;;;;13.18;7.57;;;20.60;99.90;;;;;;4992691;28;20026;-48
2022/12/21 07:31:06;;;;;;;14.05;6.97;;;20.60;99.90;;;;;;4992383;28;20488;-49
2022/12/21 07:33:33;;;;;;;14.65;7.88;;;20.60;99.90;;;;;;4975111;28;20539;-49
2022/12/21 07:36:00;;;;;;;9.60;6.07;;;20.60;99.90;;;;;;4992454;28;20034;-48
2022/12/21 07:38:31;;;;;;;12.10;6.47;;;20.60;99.90;;;;;;4992461;28;20125;-48
2022/12/21 07:41:01;;;;;;;9.52;5.88;;;20.60;99.90;;;;;;4992465;28;20196;-50
2022/12/21 07:43:28;;;;;;;11.52;6.65;;;20.50;99.90;;;;;;4992358;28;20109;-49
2022/12/21 07:45:53;;;;;;;12.52;6.25;;;20.60;99.90;;;;;;4992356;28;20031;-48
2022/12/21 07:48:19;;;;;;;11.73;6.90;;;20.50;99.90;;;;;;4992194;28;20384;-49
2022/12/21 07:50:46;;;;;;;12.90;6.95;;;20.50;99.90;;;;;;4992394;28;20026;-49
2022/12/21 07:53:13;;;;;;;8.48;5.82;;;20.60;99.90;;;;;;4992437;28;20342;-49
2022/12/21 07:55:39;;;;;;;11.27;6.55;;;20.60;99.90;;;;;;4992456;28;20392;-49
2022/12/21 07:58:04;;;;;;;11.02;6.30;;;20.60;99.90;;;;;;4992347;28;20037;-49
2022/12/21 08:00:30;;;;;;;10.77;6.55;;;20.60;99.90;;;;;;4992171;28;20069;-49
2022/12/21 08:02:56;;;;;;;10.50;6.65;;;20.60;99.90;;;;;;4992176;28;20105;-49
2022/12/21 08:05:22;;;;;;;10.35;6.97;;;20.60;99.90;;;;;;4992233;28;20034;-48
2022/12/21 08:07:48;;;;;;;10.07;6.30;;;20.60;99.90;;;;;;4992256;28;20453;-49
2022/12/21 08:10:15;;;;;;;11.77;6.35;;;20.60;99.90;;;;;;4992466;28;20076;-48
2022/12/21 08:12:41;;;;;;;14.23;6.87;;;20.60;99.90;;;;;;4995827;28;20034;-48
2022/12/21 08:15:08;;;;;;;13.30;7.05;;;20.60;99.90;;;;;;4978702;28;20286;-49
2022/12/21 08:17:34;;;;;;;12.55;6.50;;;20.60;99.90;;;;;;4995634;28;20039;-49
2022/12/21 08:20:00;;;;;;;11.65;6.22;;;20.70;99.90;;;;;;4995611;28;20483;-49
2022/12/21 08:22:25;;;;;;;10.60;6.55;;;20.70;99.90;;;;;;4995500;28;20022;-49
2022/12/21 08:24:51;;;;;;;9.90;6.05;;;20.60;99.90;;;;;;4995603;28;20030;-49
2022/12/21 08:27:18;;;;;;;11.85;6.05;;;20.70;99.90;;;;;;4995515;28;20038;-49
2022/12/21 08:29:43;;;;;;;10.90;6.57;;;20.70;99.90;;;;;;4995422;28;20362;-49
2022/12/21 08:32:09;;;;;;;10.68;6.72;;;20.70;99.90;;;;;;4995607;28;20133;-49
2022/12/21 08:34:35;;;;;;;11.90;6.38;;;20.70;99.90;;;;;;4978102;28;20097;-49
2022/12/21 08:37:01;;;;;;;9.57;6.38;;;20.70;99.90;;;;;;4995264;28;20035;-47
2022/12/21 08:39:27;;;;;;;9.38;5.97;;;20.80;99.90;;;;;;4995228;28;20037;-48
2022/12/21 08:41:53;;;;;;;9.18;6.32;;;20.80;99.90;;;;;;4995317;28;20030;-48
2022/12/21 08:44:19;;;;;;;9.15;6.25;;;20.80;99.90;;;;;;4995188;28;20037;-49
2022/12/21 08:46:45;;;;;;;9.23;6.03;;;20.80;99.90;;;;;;4995044;28;20105;-48
2022/12/21 08:49:11;;;;;;;9.05;5.68;;;20.80;99.90;;;;;;4995364;28;20073;-48
2022/12/21 08:51:40;;;;;;;11.43;6.07;;;20.90;99.90;;;;;;4995125;28;20503;-48
2022/12/21 08:54:07;;;;;;;10.65;6.35;;;20.90;99.90;;;;;;4995088;28;20023;-48
2022/12/21 08:56:33;;;;;;;9.57;5.70;;;20.90;99.90;;;;;;4994776;28;20488;-48
2022/12/21 08:59:05;;;;;;;9.75;5.97;;;21.00;99.90;;;;;;4994814;28;20034;-48
2022/12/21 09:01:32;;;;;;;9.95;5.47;;;21.00;99.90;;;;;;4994801;28;20050;-48
2022/12/21 09:03:57;;;;;;;9.10;5.50;;;21.00;99.90;;;;;;4994923;28;20034;-49
2022/12/21 09:06:23;;;;;;;10.45;6.22;;;21.00;99.90;;;;;;4994791;28;20105;-49
2022/12/21 09:08:49;;;;;;;9.38;5.80;;;21.00;99.90;;;;;;4994827;28;20551;-49
2022/12/21 09:11:17;;;;;;;11.20;5.90;;;21.10;99.90;;;;;;4994736;28;20488;-49
2022/12/21 09:13:43;;;;;;;11.07;5.78;;;21.10;99.90;;;;;;4977486;28;20026;-49
2022/12/21 09:16:17;;;;;;;9.38;5.95;;;21.10;99.90;;;;;;4994727;28;20030;-49
2022/12/21 09:18:44;;;;;;;8.07;5.05;;;21.20;99.90;;;;;;4995016;28;20037;-49
2022/12/21 09:21:11;;;;;;;12.52;5.50;;;21.20;99.90;;;;;;4994614;28;20089;-49
2022/12/21 09:23:37;;;;;;;9.30;5.65;;;21.20;99.90;;;;;;4993420;28;20026;-48
2022/12/21 09:26:04;;;;;;;11.30;5.47;;;21.20;99.90;;;;;;4994323;28;20476;-49
2022/12/21 09:28:30;;;;;;;8.75;5.25;;;21.20;99.90;;;;;;4994308;28;20027;-49
2022/12/21 09:30:56;;;;;;;8.77;5.63;;;21.20;99.90;;;;;;4976939;28;20040;-49
2022/12/21 09:33:23;;;;;;;8.70;5.15;;;21.30;99.90;;;;;;4994245;28;20025;-48
2022/12/21 09:35:52;;;;;;;11.68;5.18;;;21.30;99.90;;;;;;4994219;28;20033;-49
2022/12/21 09:38:18;;;;;;;8.18;5.00;;;21.30;99.90;;;;;;4994091;28;20092;-49
2022/12/21 09:40:45;;;;;;;7.90;5.28;;;21.30;99.90;;;;;;4994273;28;20032;-49
2022/12/21 09:43:27;;;;;;;8.32;5.15;;;21.40;99.90;;;;;;4977223;28;20031;-49
2022/12/21 09:46:01;;;;;;;8.25;5.00;;;21.40;99.90;;;;;;4994006;28;20049;-49
2022/12/21 09:48:34;;;;;;;9.05;4.88;;;21.40;99.90;;;;;;4994013;28;20469;-49
2022/12/21 09:51:13;;;;;;;9.43;5.35;;;21.40;99.90;;;;;;4976719;28;20357;-49
2022/12/21 09:53:46;;;;;;;7.80;4.88;;;21.40;99.90;;;;;;4976580;28;20170;-49
2022/12/21 09:56:17;;;;;;;8.43;5.10;;;21.50;99.90;;;;;;4993981;28;20025;-49
2022/12/21 09:58:45;;;;;;;10.77;5.40;;;21.50;99.90;;;;;;4994033;28;20420;-49
2022/12/21 10:01:28;;;;;;;9.60;5.18;;;21.50;99.90;;;;;;4993695;28;20417;-48
2022/12/21 10:04:12;;;;;;;9.82;5.00;;;21.60;99.90;;;;;;4992342;28;20023;-49
2022/12/21 10:06:59;;;;;;;11.25;5.90;;;21.60;99.90;;;;;;4993601;28;20034;-49
2022/12/21 10:09:53;;;;;;;7.22;4.47;;;21.60;99.90;;;;;;4994071;28;20380;-49
2022/12/21 10:12:41;;;;;;;9.13;4.63;;;21.60;99.90;;;;;;4993595;28;20104;-48
2022/12/21 10:15:34;;;;;;;9.55;4.47;;;21.60;99.90;;;;;;4993485;28;20105;-49
2022/12/21 10:18:11;;;;;;;8.55;4.65;;;21.60;99.90;;;;;;4993195;28;20035;-49
2022/12/21 10:20:46;;;;;;;6.83;4.73;;;21.60;99.90;;;;;;4976016;28;20357;-48
2022/12/21 10:23:32;;;;;;;8.05;4.47;;;21.60;99.90;;;;;;4993514;28;20263;-48
2022/12/21 10:26:02;;;;;;;6.63;4.32;;;21.70;99.90;;;;;;4993402;28;20031;-49
2022/12/21 10:28:51;;;;;;;10.20;4.60;;;21.60;99.90;;;;;;4993227;28;20019;-49
2022/12/21 10:31:43;;;;;;;7.70;4.82;;;21.70;99.90;;;;;;4993078;28;20034;-49
2022/12/21 10:34:16;;;;;;;7.43;4.15;;;21.70;99.90;;;;;;4992940;28;20030;-49
2022/12/21 10:36:44;;;;;;;10.90;4.07;;;21.70;99.90;;;;;;4993134;28;20030;-49
2022/12/21 10:39:12;;;;;;;;;;;21.70;99.90;;;;;;4993452;28;20380;-49
2022/12/21 10:41:42;;;;;;;7.90;4.68;;;21.80;99.90;;;;;;4975713;28;19998;-52
2022/12/21 10:44:10;;;;;;;8.50;4.43;;;21.80;99.90;;;;;;4993060;28;20045;-49
2022/12/21 10:46:37;;;;;;;5.93;4.03;;;21.80;99.90;;;;;;4975563;28;20480;-49
2022/12/21 10:49:15;;;;;;;7.53;4.00;;;21.80;99.90;;;;;;4992835;28;20025;-49
2022/12/21 10:51:40;;;;;;;;;;;21.90;99.90;;;;;;4993105;28;20069;-49
2022/12/21 10:54:09;;;;;;;7.25;4.75;;;22.00;99.90;;;;;;4992896;28;20281;-49
2022/12/21 10:56:48;;;;;;;7.63;4.07;;;22.00;99.90;;;;;;4975282;28;20026;-49
2022/12/21 10:59:28;;;;;;;7.10;3.95;;;22.10;99.90;;;;;;4976542;28;20026;-49
2022/12/21 11:01:55;;;;;;;6.68;4.03;;;22.10;99.90;;;;;;4992914;28;20566;-49
2022/12/21 11:04:24;;;;;;;8.00;4.18;;;22.20;99.90;;;;;;4992833;28;20038;-49
2022/12/21 11:07:03;;;;;;;8.13;3.65;;;22.20;99.90;;;;;;4992766;28;20456;-49
2022/12/21 11:09:36;;;;;;;7.97;4.72;;;22.30;99.90;;;;;;4992784;28;20033;-49
2022/12/21 11:12:21;;;;;;;7.13;3.95;;;22.30;99.90;;;;;;4992644;28;20034;-49
2022/12/21 11:14:48;;;;;;;8.63;4.03;;;22.50;99.90;;;;;;4992944;28;20030;-49
2022/12/21 11:17:29;;;;;;;8.80;4.10;;;22.50;99.90;;;;;;4991479;28;20029;-49
2022/12/21 11:20:19;;;;;;;8.63;3.90;;;22.60;99.90;;;;;;4992804;28;20053;-49
2022/12/21 11:22:47;;;;;;;9.68;4.15;;;22.60;99.90;;;;;;4992849;28;20022;-49
2022/12/21 11:25:18;;;;;;;7.30;4.07;;;22.60;99.90;;;;;;4992608;28;20031;-49
2022/12/21 11:27:47;;;;;;;6.65;4.03;;;22.70;99.90;;;;;;4992533;28;20022;-49
2022/12/21 11:30:20;;;;;;;6.75;4.07;;;22.70;99.90;;;;;;4992622;28;20032;-49
2022/12/21 11:32:48;;;;;;;10.13;4.15;;;22.80;99.90;;;;;;4992486;28;20093;-49
2022/12/21 11:35:23;;;;;;;6.55;3.65;;;22.80;99.90;;;;;;5007443;28;20031;-49
2022/12/21 11:38:01;;;;;;;6.43;3.45;;;22.90;99.90;;;;;;4992540;28;20030;-49
2022/12/21 11:40:28;;;;;;;8.48;4.10;;;22.90;99.90;;;;;;4992162;28;20072;-49
2022/12/21 11:43:01;;;;;;;5.65;3.15;;;22.90;99.90;;;;;;4992437;28;20023;-49
2022/12/21 11:45:39;;;;;;;11.88;3.88;;;23.00;99.90;;;;;;4992715;28;20073;-49
2022/12/21 11:48:31;;;;;;;9.88;3.58;;;23.00;99.90;;;;;;4995956;28;20029;-49
2022/12/21 11:51:07;;;;;;;7.28;3.75;;;23.10;99.90;;;;;;4993147;28;20042;-49
2022/12/21 11:53:56;;;;;;;10.77;3.95;;;23.10;99.90;;;;;;4996136;28;20105;-49
2022/12/21 11:56:39;;;;;;;12.27;3.53;;;23.20;99.90;;;;;;4996242;28;20409;-49
2022/12/21 11:59:13;;;;;;;7.65;2.97;;;23.20;99.90;;;;;;4995968;28;20023;-49
2022/12/21 12:01:39;;;;;;;6.00;3.50;;;23.20;99.90;;;;;;4995573;28;20499;-49
2022/12/21 12:04:43;;;;;;;10.18;4.00;;;23.30;99.90;;;;;;4995619;28;20034;-48
2022/12/21 12:07:37;;;;;;;14.18;4.05;;;23.30;99.90;;;;;;4990232;28;20559;-49
2022/12/21 12:10:24;;;;;;;9.77;3.47;;;23.30;99.90;;;;;;4995641;28;20058;-49
2022/12/21 12:13:28;;;;;;;7.07;3.47;;;23.40;99.90;;;;;;4995846;28;20019;-49
2022/12/21 12:16:16;;;;;;;8.77;3.78;;;23.40;99.90;;;;;;4995771;28;20022;-49
2022/12/21 12:19:09;;;;;;;6.07;3.33;;;23.40;99.90;;;;;;4995545;28;20038;-49
2022/12/21 12:22:01;;;;;;;11.38;4.32;;;23.40;99.90;;;;;;4995664;28;20050;-49
2022/12/21 12:25:01;;;;;;;7.70;3.47;;;23.40;99.90;;;;;;4995441;28;20089;-49
2022/12/21 12:27:26;;;;;;;10.38;3.92;;;23.50;99.90;;;;;;4989763;28;20464;-48
2022/12/21 12:30:05;;;;;;;9.38;3.65;;;23.50;99.90;;;;;;5010721;28;20022;-48
2022/12/21 12:32:45;;;;;;;6.18;3.50;;;23.50;99.90;;;;;;5007942;28;20018;-49
2022/12/21 12:35:14;;;;;;;8.80;3.80;;;23.60;99.90;;;;;;5011314;28;20058;-49
2022/12/21 12:37:46;;;;;;;12.13;3.63;;;23.60;99.90;;;;;;5010889;28;20164;-49
2022/12/21 12:40:20;;;;;;;9.95;3.30;;;23.60;99.90;;;;;;5010994;28;20025;-49
2022/12/21 12:43:07;;;;;;;9.00;3.70;;;23.60;99.90;;;;;;4991722;28;20509;-49
2022/12/21 12:45:57;;;;;;;6.80;3.55;;;23.60;99.90;;;;;;4991186;28;20026;-49
2022/12/21 12:48:43;;;;;;;10.80;3.95;;;23.60;99.90;;;;;;5001473;28;20041;-49
2022/12/21 12:51:41;;;;;;;6.70;3.45;;;23.70;99.90;;;;;;4988542;28;20478;-48
2022/12/21 12:54:15;;;;;;;7.95;3.72;;;23.70;99.90;;;;;;4987402;28;20476;-49
2022/12/21 12:57:02;;;;;;;6.90;3.40;;;23.70;99.90;;;;;;4988746;28;20034;-49
2022/12/21 12:59:30;;;;;;;8.50;3.95;;;23.80;99.90;;;;;;4990978;28;20780;-49
2022/12/21 13:02:06;;;;;;;7.95;3.83;;;23.70;99.90;;;;;;4993940;28;20048;-49
2022/12/21 13:04:54;;;;;;;7.55;3.58;;;23.80;99.90;;;;;;4990857;28;20053;-49
2022/12/21 13:07:38;;;;;;;6.25;3.22;;;23.80;99.90;;;;;;4992925;28;20027;-49
2022/12/21 13:10:30;;;;;;;9.25;3.47;;;23.80;99.90;;;;;;4994185;28;20025;-49
2022/12/21 13:13:16;;;;;;;8.63;3.40;;;23.90;99.90;;;;;;4990926;28;20041;-49
2022/12/21 13:15:53;;;;;;;10.73;3.70;;;23.90;99.90;;;;;;4993876;28;20018;-49
2022/12/21 13:18:54;;;;;;;7.57;3.20;;;23.90;99.90;;;;;;4993782;28;20084;-49